createdAt,value
2022-10-30T00:01:01.242Z,10.23
2022-10-30T00:04:06.057Z,8.27
2022-10-30T00:07:09.181Z,9.60
2022-10-30T00:10:12.248Z,9.67
2022-10-30T00:13:15.629Z,9.63
2022-10-30T00:16:18.758Z,11.70
2022-10-30T00:19:23.353Z,9.43
2022-10-30T00:22:26.493Z,9.10
2022-10-30T00:25:29.550Z,14.30
2022-10-30T00:28:32.683Z,9.47
2022-10-30T00:31:35.770Z,9.60
2022-10-30T00:34:40.282Z,8.47
2022-10-30T00:37:43.380Z,9.03
2022-10-30T00:40:46.628Z,9.17
2022-10-30T00:43:50.235Z,9.17
2022-10-30T00:46:53.326Z,13.07
2022-10-30T00:50:04.215Z,8.53
2022-10-30T00:53:11.808Z,9.43
2022-10-30T00:56:18.962Z,9.17
2022-10-30T00:59:27.437Z,9.70
2022-10-30T01:02:30.672Z,9.60
2022-10-30T01:05:36.528Z,10.93
2022-10-30T01:08:40.233Z,13.43
2022-10-30T01:11:43.572Z,14.07
2022-10-30T01:14:51.193Z,14.30
2022-10-30T01:18:13.698Z,13.00
2022-10-30T01:21:32.362Z,11.20
2022-10-30T01:24:50.257Z,10.37
2022-10-30T01:28:00.318Z,9.60
2022-10-30T01:31:18.161Z,12.63
2022-10-30T01:34:26.369Z,11.03
2022-10-30T01:37:36.616Z,9.87
2022-10-30T01:40:39.760Z,9.43
2022-10-30T01:43:44.254Z,9.23
2022-10-30T01:47:01.236Z,8.73
2022-10-30T01:50:24.589Z,10.67
2022-10-30T01:53:43.271Z,8.97
2022-10-30T01:56:56.196Z,8.60
2022-10-30T02:00:03.458Z,10.10
2022-10-30T02:03:06.695Z,14.97
2022-10-30T02:06:09.877Z,9.97
2022-10-30T02:09:16.538Z,10.53
2022-10-30T02:12:20.620Z,11.60
2022-10-30T02:15:24.210Z,10.07
2022-10-30T02:18:27.670Z,9.93
2022-10-30T02:21:32.483Z,10.27
2022-10-30T02:24:36.221Z,9.57
2022-10-30T02:27:39.455Z,10.70
2022-10-30T02:30:44.280Z,10.17
2022-10-30T02:33:48.102Z,9.30
2022-10-30T02:36:52.723Z,10.23
2022-10-30T02:39:55.874Z,13.90
2022-10-30T02:42:59.608Z,10.23
2022-10-30T02:46:02.739Z,10.70
2022-10-30T02:49:06.006Z,9.50
2022-10-30T02:52:10.573Z,10.40
2022-10-30T02:55:13.850Z,9.90
2022-10-30T02:58:16.980Z,9.73
2022-10-30T03:01:21.144Z,12.17
2022-10-30T03:04:24.293Z,12.10
2022-10-30T03:07:28.766Z,12.77
2022-10-30T03:10:31.915Z,11.43
2022-10-30T03:13:36.460Z,11.97
2022-10-30T03:16:39.750Z,13.13
2022-10-30T03:19:42.817Z,10.57
2022-10-30T03:22:47.333Z,9.13
2022-10-30T03:25:53.796Z,9.77
2022-10-30T03:28:56.883Z,10.67
2022-10-30T03:31:59.989Z,10.63
2022-10-30T03:35:03.089Z,10.97
2022-10-30T03:38:07.549Z,10.40
2022-10-30T03:41:10.659Z,10.40
2022-10-30T03:44:13.990Z,10.70
2022-10-30T03:47:17.089Z,10.50
2022-10-30T03:50:20.230Z,12.67
2022-10-30T03:53:26.438Z,8.83
2022-10-30T03:56:29.647Z,10.50
2022-10-30T03:59:32.765Z,11.77
2022-10-30T04:02:35.889Z,10.47
2022-10-30T04:05:39.933Z,12.30
2022-10-30T04:08:44.411Z,11.10
2022-10-30T04:11:47.493Z,9.50
2022-10-30T04:14:50.587Z,9.70
2022-10-30T04:17:53.938Z,9.30
2022-10-30T04:20:57.320Z,11.63
2022-10-30T04:24:02.012Z,9.07
2022-10-30T04:27:05.201Z,9.63
2022-10-30T04:30:09.985Z,9.70
2022-10-30T04:33:14.704Z,10.03
2022-10-30T04:36:19.004Z,10.10
2022-10-30T04:39:23.482Z,11.80
2022-10-30T04:42:26.639Z,9.07
2022-10-30T04:45:30.162Z,9.90
2022-10-30T04:48:35.094Z,9.43
2022-10-30T04:51:38.202Z,9.67
2022-10-30T04:54:42.681Z,8.20
2022-10-30T04:57:45.774Z,9.23
2022-10-30T05:00:48.869Z,10.07
2022-10-30T05:03:54.679Z,11.00
2022-10-30T05:06:58.162Z,9.53
2022-10-30T05:10:02.645Z,10.50
2022-10-30T05:13:05.770Z,11.00
2022-10-30T05:16:09.361Z,11.03
2022-10-30T05:19:12.469Z,10.80
2022-10-30T05:22:15.991Z,12.63
2022-10-30T05:25:20.453Z,10.97
2022-10-30T05:28:23.578Z,10.87
2022-10-30T05:31:26.686Z,12.70
2022-10-30T05:34:29.782Z,11.10
2022-10-30T05:37:32.885Z,11.03
2022-10-30T05:40:37.701Z,11.50
2022-10-30T05:43:40.774Z,11.60
2022-10-30T05:46:43.942Z,12.40
2022-10-30T05:49:47.090Z,11.40
2022-10-30T05:52:50.163Z,12.20
2022-10-30T05:55:57.653Z,11.10
2022-10-30T05:59:00.761Z,10.67
2022-10-30T06:02:03.908Z,10.90
2022-10-30T06:05:07.586Z,10.77
2022-10-30T06:08:10.683Z,11.07
2022-10-30T06:11:15.180Z,10.57
2022-10-30T06:14:18.243Z,10.67
2022-10-30T06:17:21.366Z,10.27
2022-10-30T06:20:26.812Z,11.33
2022-10-30T06:23:29.894Z,10.60
2022-10-30T06:26:34.415Z,8.60
2022-10-30T06:29:37.486Z,8.17
2022-10-30T06:32:40.595Z,7.30
2022-10-30T06:35:43.712Z,8.07
2022-10-30T06:38:46.934Z,9.73
2022-10-30T06:41:54.146Z,9.33
2022-10-30T06:44:57.214Z,8.13
2022-10-30T06:48:02.021Z,7.00
2022-10-30T06:51:05.585Z,8.07
2022-10-30T06:54:08.672Z,8.00
2022-10-30T06:57:15.143Z,10.90
2022-10-30T07:00:18.404Z,11.97
2022-10-30T07:03:22.247Z,8.93
2022-10-30T07:06:25.346Z,8.93
2022-10-30T07:09:28.490Z,9.90
2022-10-30T07:12:32.957Z,9.13
2022-10-30T07:15:36.430Z,10.33
2022-10-30T07:18:39.563Z,9.13
2022-10-30T07:21:42.759Z,9.73
2022-10-30T07:24:45.886Z,8.90
2022-10-30T07:27:51.765Z,8.57
2022-10-30T07:30:54.851Z,11.70
2022-10-30T07:33:58.218Z,9.20
2022-10-30T07:37:01.397Z,10.60
2022-10-30T07:40:08.635Z,10.70
2022-10-30T07:43:16.848Z,10.13
2022-10-30T07:46:19.996Z,11.73
2022-10-30T07:49:23.143Z,11.20
2022-10-30T07:52:26.343Z,10.53
2022-10-30T07:55:29.413Z,9.97
2022-10-30T07:58:33.875Z,11.13
2022-10-30T08:01:37.073Z,10.33
2022-10-30T08:04:40.230Z,10.10
2022-10-30T08:07:43.321Z,10.30
2022-10-30T08:10:46.415Z,9.50
2022-10-30T08:13:50.889Z,10.40
2022-10-30T08:16:54.002Z,9.80
2022-10-30T08:19:57.767Z,8.60
2022-10-30T08:23:01.362Z,8.40
2022-10-30T08:26:05.521Z,8.27
2022-10-30T08:29:10.156Z,8.57
2022-10-30T08:32:13.276Z,8.00
2022-10-30T08:35:19.806Z,8.23
2022-10-30T08:38:23.820Z,9.33
2022-10-30T08:41:26.943Z,9.23
2022-10-30T08:44:31.434Z,7.87
2022-10-30T08:47:35.427Z,9.10
2022-10-30T08:50:38.704Z,9.00
2022-10-30T08:53:41.800Z,8.57
2022-10-30T08:56:44.947Z,8.90
2022-10-30T08:59:49.462Z,9.03
2022-10-30T09:02:52.879Z,8.63
2022-10-30T09:05:55.979Z,9.10
2022-10-30T09:08:59.068Z,8.73
2022-10-30T09:12:02.189Z,10.30
2022-10-30T09:15:07.948Z,9.40
2022-10-30T09:18:11.402Z,9.43
2022-10-30T09:21:14.551Z,9.30
2022-10-30T09:24:17.642Z,8.83
2022-10-30T09:27:20.784Z,8.87
2022-10-30T09:30:26.094Z,7.82
2022-10-30T09:33:29.341Z,8.23
2022-10-30T09:36:33.102Z,8.40
2022-10-30T09:39:36.229Z,9.50
2022-10-30T09:42:44.609Z,7.68
2022-10-30T09:46:21.115Z,8.23
2022-10-30T09:49:44.373Z,7.63
2022-10-30T09:52:55.068Z,8.43
2022-10-30T09:56:05.869Z,10.27
2022-10-30T09:59:16.372Z,8.57
2022-10-30T10:02:34.479Z,7.90
2022-10-30T10:05:45.336Z,6.55
2022-10-30T10:08:53.892Z,8.10
2022-10-30T10:12:00.541Z,7.82
2022-10-30T10:15:12.566Z,8.43
2022-10-30T10:18:24.775Z,7.10
2022-10-30T10:21:29.933Z,7.85
2022-10-30T10:24:36.922Z,8.23
2022-10-30T10:27:59.162Z,6.50
2022-10-30T10:31:13.901Z,9.90
2022-10-30T10:34:34.594Z,9.52
2022-10-30T10:37:48.577Z,9.90
2022-10-30T10:41:01.801Z,8.05
2022-10-30T10:44:23.049Z,6.70
2022-10-30T10:47:51.160Z,5.93
2022-10-30T10:51:02.336Z,7.57
2022-10-30T10:54:11.322Z,8.02
2022-10-30T10:57:21.282Z,9.82
2022-10-30T11:00:32.283Z,10.40
2022-10-30T11:03:45.543Z,7.75
2022-10-30T11:06:53.047Z,7.85
2022-10-30T11:09:58.025Z,7.18
2022-10-30T11:13:02.020Z,9.10
2022-10-30T11:16:14.836Z,8.43
2022-10-30T11:19:18.050Z,11.23
2022-10-30T11:22:28.353Z,8.02
2022-10-30T11:25:36.729Z,7.30
2022-10-30T11:28:51.367Z,6.78
2022-10-30T11:32:05.096Z,8.15
2022-10-30T11:35:14.339Z,7.88
2022-10-30T11:38:21.235Z,8.05
2022-10-30T11:41:24.438Z,11.10
2022-10-30T11:44:32.395Z,7.38
2022-10-30T11:47:39.166Z,7.38
2022-10-30T11:50:48.806Z,8.30
2022-10-30T11:53:53.457Z,7.13
2022-10-30T11:56:57.847Z,8.07
2022-10-30T12:00:05.315Z,9.43
2022-10-30T12:03:29.570Z,6.57
2022-10-30T12:06:32.695Z,7.18
2022-10-30T12:09:45.108Z,7.90
2022-10-30T12:12:52.242Z,9.27
2022-10-30T12:16:08.479Z,9.15
2022-10-30T12:19:15.966Z,8.30
2022-10-30T12:22:33.480Z,11.95
2022-10-30T12:25:38.697Z,7.63
2022-10-30T12:28:48.429Z,11.73
2022-10-30T12:31:56.993Z,8.50
2022-10-30T12:35:05.077Z,8.13
2022-10-30T12:38:16.740Z,10.70
2022-10-30T12:41:24.812Z,11.45
2022-10-30T12:44:31.810Z,12.10
2022-10-30T12:47:40.582Z,9.05
2022-10-30T12:50:50.053Z,6.72
2022-10-30T12:54:00.829Z,11.93
2022-10-30T12:57:11.935Z,10.15
2022-10-30T13:00:17.544Z,8.90
2022-10-30T13:03:31.341Z,9.20
2022-10-30T13:06:40.408Z,10.38
2022-10-30T13:09:49.724Z,9.40
2022-10-30T13:13:02.114Z,11.35
2022-10-30T13:16:12.009Z,9.38
2022-10-30T13:19:15.290Z,10.85
2022-10-30T13:22:24.986Z,11.57
2022-10-30T13:25:33.964Z,9.35
2022-10-30T13:28:43.193Z,7.97
2022-10-30T13:31:59.568Z,10.73
2022-10-30T13:35:15.839Z,8.85
2022-10-30T13:38:36.405Z,9.43
2022-10-30T13:41:46.274Z,11.20
2022-10-30T13:45:01.853Z,9.43
2022-10-30T13:48:14.847Z,9.13
2022-10-30T13:51:34.122Z,10.50
2022-10-30T13:54:40.646Z,10.88
2022-10-30T13:57:48.276Z,10.90
2022-10-30T14:01:00.706Z,8.85
2022-10-30T14:04:08.116Z,13.10
2022-10-30T14:07:22.370Z,13.33
2022-10-30T14:10:41.741Z,10.57
2022-10-30T14:13:54.291Z,12.17
2022-10-30T14:17:14.432Z,8.53
2022-10-30T14:20:28.534Z,10.13
2022-10-30T14:23:35.879Z,16.17
2022-10-30T14:26:40.119Z,8.30
2022-10-30T14:29:49.438Z,9.57
2022-10-30T14:32:54.310Z,8.77
2022-10-30T14:36:20.097Z,6.77
2022-10-30T14:39:29.941Z,10.60
2022-10-30T14:42:40.877Z,12.97
2022-10-30T14:45:49.645Z,10.33
2022-10-30T14:49:02.933Z,12.27
2022-10-30T14:52:17.034Z,9.93
2022-10-30T14:55:33.837Z,7.93
2022-10-30T14:58:38.664Z,9.43
2022-10-30T15:01:50.207Z,10.23
2022-10-30T15:05:27.591Z,7.70
2022-10-30T15:08:47.885Z,11.67
2022-10-30T15:12:08.408Z,8.50
2022-10-30T15:15:16.174Z,7.73
2022-10-30T15:18:21.525Z,10.43
2022-10-30T15:21:29.604Z,9.93
2022-10-30T15:24:35.234Z,12.53
2022-10-30T15:27:43.875Z,17.10
2022-10-30T15:31:01.685Z,18.00
2022-10-30T15:34:16.002Z,18.03
2022-10-30T15:37:20.694Z,15.77
2022-10-30T15:40:24.107Z,14.40
2022-10-30T15:43:31.725Z,10.73
2022-10-30T15:46:35.115Z,13.03
2022-10-30T15:49:41.657Z,12.40
2022-10-30T15:52:47.372Z,14.37
2022-10-30T15:55:51.655Z,11.80
2022-10-30T15:58:58.558Z,10.83
2022-10-30T16:02:02.214Z,12.03
2022-10-30T16:05:21.489Z,9.30
2022-10-30T16:08:26.432Z,14.27
2022-10-30T16:11:29.647Z,11.50
2022-10-30T16:14:33.773Z,15.60
2022-10-30T16:17:37.862Z,17.90
2022-10-30T16:20:42.515Z,19.43
2022-10-30T16:23:52.873Z,15.50
2022-10-30T16:27:07.002Z,14.50
2022-10-30T16:30:15.108Z,15.17
2022-10-30T16:33:27.152Z,12.90
2022-10-30T16:36:31.306Z,22.43
2022-10-30T16:39:38.233Z,23.23
2022-10-30T16:42:44.442Z,18.40
2022-10-30T16:45:50.347Z,20.60
2022-10-30T16:48:59.912Z,16.80
2022-10-30T16:52:06.486Z,15.50
2022-10-30T16:55:21.190Z,17.20
2022-10-30T16:58:27.823Z,17.27
2022-10-30T17:01:32.074Z,14.80
2022-10-30T17:04:36.866Z,14.70
2022-10-30T17:07:40.726Z,13.57
2022-10-30T17:10:55.273Z,11.27
2022-10-30T17:14:01.667Z,14.40
2022-10-30T17:17:05.042Z,15.50
2022-10-30T17:20:15.196Z,14.13
2022-10-30T17:23:21.143Z,17.70
2022-10-30T17:26:27.849Z,21.50
2022-10-30T17:29:49.769Z,14.73
2022-10-30T17:32:56.422Z,18.83
2022-10-30T17:36:00.718Z,16.23
2022-10-30T17:39:04.681Z,19.67
2022-10-30T17:42:13.174Z,17.93
2022-10-30T17:45:17.724Z,19.47
2022-10-30T17:48:25.524Z,16.43
2022-10-30T17:51:29.757Z,20.83
2022-10-30T17:54:33.916Z,17.47
2022-10-30T17:57:38.659Z,18.87
2022-10-30T18:00:42.848Z,16.40
2022-10-30T18:03:46.474Z,17.00
2022-10-30T18:06:51.284Z,14.33
2022-10-30T18:09:54.472Z,13.87
2022-10-30T18:12:59.409Z,18.43
2022-10-30T18:16:03.351Z,15.50
2022-10-30T18:19:12.539Z,16.40
2022-10-30T18:22:16.465Z,11.80
2022-10-30T18:25:25.369Z,17.73
2022-10-30T18:28:31.595Z,13.47
2022-10-30T18:31:37.928Z,14.00
2022-10-30T18:34:42.240Z,13.80
2022-10-30T18:37:46.648Z,18.73
2022-10-30T18:40:51.805Z,14.53
2022-10-30T18:43:57.982Z,15.87
2022-10-30T18:47:03.332Z,15.97
2022-10-30T18:50:08.104Z,13.87
2022-10-30T18:53:19.740Z,13.23
2022-10-30T18:56:25.387Z,20.17
2022-10-30T18:59:34.813Z,15.80
2022-10-30T19:02:39.663Z,16.97
2022-10-30T19:05:46.354Z,14.00
2022-10-30T19:08:50.892Z,18.67
2022-10-30T19:11:55.079Z,18.53
2022-10-30T19:15:01.730Z,13.83
2022-10-30T19:18:07.986Z,16.90
2022-10-30T19:21:16.645Z,17.57
2022-10-30T19:24:28.437Z,19.80
2022-10-30T19:27:32.723Z,15.77
2022-10-30T19:30:40.568Z,23.00
2022-10-30T19:33:44.964Z,18.50
2022-10-30T19:36:49.469Z,13.90
2022-10-30T19:39:54.310Z,18.73
2022-10-30T19:42:58.578Z,13.77
2022-10-30T19:46:04.345Z,15.33
2022-10-30T19:49:21.046Z,14.70
2022-10-30T19:52:29.298Z,14.67
2022-10-30T19:55:35.633Z,15.67
2022-10-30T19:58:43.997Z,17.67
2022-10-30T20:01:50.165Z,14.47
2022-10-30T20:04:54.762Z,15.70
2022-10-30T20:08:03.739Z,18.27
2022-10-30T20:11:09.493Z,15.63
2022-10-30T20:14:13.700Z,13.20
2022-10-30T20:17:19.399Z,16.00
2022-10-30T20:20:26.700Z,17.00
2022-10-30T20:23:31.065Z,18.47
2022-10-30T20:26:35.240Z,19.87
2022-10-30T20:29:44.038Z,13.17
2022-10-30T20:32:50.413Z,15.67
2022-10-30T20:35:56.220Z,13.90
2022-10-30T20:39:02.144Z,12.10
2022-10-30T20:42:06.773Z,11.77
2022-10-30T20:45:17.581Z,19.40
2022-10-30T20:48:22.699Z,11.90
2022-10-30T20:51:27.288Z,18.60
2022-10-30T20:54:30.997Z,13.50
2022-10-30T20:57:34.253Z,15.83
2022-10-30T21:00:38.018Z,13.37
2022-10-30T21:03:42.934Z,17.23
2022-10-30T21:06:46.045Z,14.70
2022-10-30T21:09:49.548Z,12.50
2022-10-30T21:16:02.892Z,16.97
2022-10-30T21:19:07.492Z,13.87
2022-10-30T21:22:10.668Z,15.10
2022-10-30T21:25:15.007Z,12.40
2022-10-30T21:28:18.391Z,11.80
2022-10-30T21:31:21.760Z,14.80
2022-10-30T21:34:26.484Z,12.47
2022-10-30T21:37:29.718Z,14.53
2022-10-30T21:40:32.836Z,17.13
2022-10-30T21:43:35.981Z,17.70
2022-10-30T21:46:39.229Z,16.27
2022-10-30T21:49:43.705Z,17.90
2022-10-30T21:52:46.801Z,18.53
2022-10-30T21:55:49.916Z,10.53
2022-10-30T21:58:53.488Z,11.47
2022-10-30T22:01:56.675Z,12.40
2022-10-30T22:05:01.142Z,14.63
2022-10-30T22:08:04.484Z,15.63
2022-10-30T22:11:09.275Z,14.90
2022-10-30T22:14:12.744Z,12.90
2022-10-30T22:17:15.872Z,17.23
2022-10-30T22:20:20.339Z,13.80
2022-10-30T22:23:23.582Z,19.10
2022-10-30T22:26:26.705Z,13.53
2022-10-30T22:29:29.802Z,13.37
2022-10-30T22:32:32.932Z,12.67
2022-10-30T22:35:40.355Z,12.00
2022-10-30T22:38:44.021Z,15.30
2022-10-30T22:41:47.292Z,14.47
2022-10-30T22:44:50.521Z,9.47
2022-10-30T22:47:53.656Z,14.47
2022-10-30T22:50:59.453Z,10.70
2022-10-30T22:54:04.852Z,13.40
2022-10-30T22:57:07.955Z,11.83
2022-10-30T23:00:16.718Z,12.23
2022-10-30T23:03:22.466Z,11.50
2022-10-30T23:06:27.793Z,11.57
2022-10-30T23:09:30.890Z,10.07
2022-10-30T23:12:34.001Z,9.50
2022-10-30T23:15:40.289Z,9.23
2022-10-30T23:18:44.053Z,14.00
2022-10-30T23:21:48.564Z,17.50
2022-10-30T23:24:51.688Z,11.90
2022-10-30T23:27:54.816Z,12.00
2022-10-30T23:30:57.922Z,15.10
2022-10-30T23:34:02.945Z,11.50
2022-10-30T23:37:07.449Z,12.20
2022-10-30T23:40:12.222Z,10.70
2022-10-30T23:43:17.020Z,12.87
2022-10-30T23:46:20.203Z,7.90
2022-10-30T23:49:23.358Z,11.00
2022-10-30T23:52:27.840Z,11.60
2022-10-30T23:55:31.848Z,11.20
2022-10-30T23:58:35.055Z,10.10
